RKSO/OSN METAR and TAF weather

Enter ICAO airport designator
Station Type Date Time Source
RKSO METAR 2019/05/26 00:58 UTC NOAA

RKSO 260058Z 19005KT 7SM FEW180 27/12 A2996 RMK AO2A SLP148 T02680123 $


Station Type Date Time Source
RKSO Decoded METAR 2019/05/26 00:58 UTC NOAA

Osan Ab, Korea, South (RKSO) 37-06N 127-02E 12M
May 25, 2019 - 08:58 PM EDT / 2019.05.26 0058 UTC
Wind: from the S (190 degrees) at 6 MPH (5 KT):0
Visibility: 7 mile(s):0
Sky conditions: mostly clear
Temperature: 80.2 F (26.8 C)
Dew Point: 54.1 F (12.3 C)
Relative Humidity: 40%
Pressure (altimeter): 29.96 in. Hg (1014 hPa)
ob: RKSO 260058Z 19005KT 7SM FEW180 27/12 A2996 RMK AO2A SLP148 T02680123
cycle: 1

Station Type Date Time Source
RKSO TAF 2019/05/25 19:12 UTC NOAA

TAF TAF RKSO 251900Z 2519/2701 09006KT 9999 BKN200 QNH2997INS
BECMG 2600/2602 18012KT 9999 FEW200 QNH2985INS
BECMG 2608/2610 21009KT 9999 SCT150 QNH2981INS
BECMG 2614/2616 16012KT 9999 BKN035 QNH2972INS
BECMG 2621/2623 12015G25KT 8000 -SHRA SCT008 BKN015 520005 QNH2964INS TX30/2606Z TN15/2521Z

Example: see airport list